Fort Assiniboine, Canada
Current Conditions -  °F | °C
As of 6:00 AM on Sunday 21 Dec 2014 (Local Time) from CYZU Reporting Station
Light Snow Light Snow  
Wind Chill: 16°   Ceiling: 8000
Heat Index: 16°   Visibility: 12mi
Dew Point: 14°   Wind: 0mph
Humidity: 93%   Direction: NA
Pressure: 29.26"   Gusts: NA
Location:  54.33°N, 114.77°W
Report Text: CYZU 211300Z 00000KT 12SM -SN OVC080 M09/M10 A2926 RMK AC8 SLP953
Loading
Personal Weather Stations






























Interactive Weather Map New forecast layout! Learn more

10-Day Weather Forecast

Advertisements
Track Severe Weather on mobile